createdAt,value
2022-08-17T00:00:42.580Z,9.82
2022-08-17T00:04:39.489Z,8.45
2022-08-17T00:08:44.624Z,7.22
2022-08-17T00:12:46.772Z,5.87
2022-08-17T00:16:57.225Z,12.05
2022-08-17T00:21:00.656Z,8.07
2022-08-17T00:25:05.253Z,7.22
2022-08-17T00:29:07.747Z,8.38
2022-08-17T00:33:16.591Z,6.57
2022-08-17T00:37:18.737Z,8.85
2022-08-17T00:41:24.468Z,11.68
2022-08-17T00:45:26.911Z,11.18
2022-08-17T00:49:29.538Z,6.30
2022-08-17T00:53:33.629Z,10.23
2022-08-17T00:57:40.044Z,9.20
2022-08-17T01:01:42.444Z,7.53
2022-08-17T01:05:44.272Z,6.37
2022-08-17T01:09:48.461Z,7.30
2022-08-17T01:13:50.332Z,9.32
2022-08-17T01:17:52.137Z,7.85
2022-08-17T01:22:05.833Z,6.72
2022-08-17T01:26:08.559Z,7.20
2022-08-17T01:30:59.004Z,10.05
2022-08-17T01:34:42.452Z,9.93
2022-08-17T01:38:45.234Z,13.43
2022-08-17T01:42:57.160Z,11.73
2022-08-17T01:46:58.864Z,8.40
2022-08-17T01:51:03.197Z,9.65
2022-08-17T01:55:07.215Z,8.70
2022-08-17T01:59:09.324Z,11.12
2022-08-17T02:03:11.908Z,12.55
2022-08-17T02:07:13.667Z,10.63
2022-08-17T02:11:21.206Z,14.15
2022-08-17T02:15:23.469Z,9.23
2022-08-17T02:19:25.278Z,8.52
2022-08-17T02:23:29.280Z,10.43
2022-08-17T02:27:31.339Z,8.85
2022-08-17T02:31:33.226Z,8.80
2022-08-17T02:35:37.095Z,9.63
2022-08-17T02:39:38.883Z,10.25
2022-08-17T02:43:40.756Z,14.70
2022-08-17T02:47:43.931Z,15.25
2022-08-17T02:51:45.619Z,15.48
2022-08-17T02:55:47.436Z,8.98
2022-08-17T02:59:49.272Z,10.43
2022-08-17T03:03:51.337Z,8.77
2022-08-17T03:07:53.257Z,9.07
2022-08-17T03:11:55.923Z,10.52
2022-08-17T03:15:57.862Z,9.38
2022-08-17T03:19:59.793Z,11.25
2022-08-17T03:24:01.641Z,9.27
2022-08-17T03:28:12.153Z,13.43
2022-08-17T03:32:15.885Z,10.02
2022-08-17T03:36:17.568Z,10.43
2022-08-17T03:40:55.183Z,9.15
2022-08-17T03:44:42.045Z,11.12
2022-08-17T03:49:02.256Z,12.48
2022-08-17T03:53:28.449Z,12.55
2022-08-17T03:57:31.393Z,12.07
2022-08-17T04:01:33.191Z,9.15
2022-08-17T04:05:34.924Z,11.88
2022-08-17T04:09:37.007Z,9.15
2022-08-17T04:13:38.775Z,9.63
2022-08-17T04:17:41.030Z,9.80
2022-08-17T04:21:42.759Z,8.38
2022-08-17T04:25:48.315Z,8.13
2022-08-17T04:29:55.602Z,9.02
2022-08-17T04:33:57.748Z,9.63
2022-08-17T04:37:59.869Z,9.13
2022-08-17T04:42:09.140Z,8.00
2022-08-17T04:46:14.575Z,12.05
2022-08-17T04:50:16.440Z,9.57
2022-08-17T04:54:20.727Z,10.63
2022-08-17T04:58:22.445Z,7.25
2022-08-17T05:02:24.241Z,7.57
2022-08-17T05:06:27.408Z,9.07
2022-08-17T05:10:31.947Z,20.05
2022-08-17T05:14:34.024Z,14.23
2022-08-17T05:18:37.179Z,9.27
2022-08-17T05:22:51.808Z,7.07
2022-08-17T05:26:53.710Z,7.03
2022-08-17T05:30:59.732Z,6.43
2022-08-17T05:35:01.574Z,7.87
2022-08-17T05:39:03.564Z,8.32
2022-08-17T05:43:33.336Z,6.28
2022-08-17T05:47:36.394Z,7.35
2022-08-17T05:52:00.727Z,5.25
2022-08-17T05:56:29.958Z,5.30
2022-08-17T06:00:46.961Z,5.97
2022-08-17T06:04:48.708Z,7.40
2022-08-17T06:09:07.029Z,4.68
2022-08-17T06:13:59.621Z,7.28
2022-08-17T06:18:07.668Z,6.85
2022-08-17T06:22:13.398Z,9.85
2022-08-17T06:26:20.825Z,7.60
2022-08-17T06:30:58.676Z,7.20
2022-08-17T06:34:53.484Z,7.53
2022-08-17T06:39:13.290Z,11.43
2022-08-17T06:43:48.006Z,6.12
2022-08-17T06:47:59.565Z,7.22
2022-08-17T06:52:42.188Z,5.10
2022-08-17T06:56:53.248Z,9.05
2022-08-17T07:01:02.033Z,10.68
2022-08-17T07:09:23.487Z,5.05
2022-08-17T07:13:51.514Z,5.85
2022-08-17T07:17:53.550Z,9.77
2022-08-17T07:22:07.709Z,8.23
2022-08-17T07:26:10.120Z,11.73
2022-08-17T07:30:17.173Z,9.43
2022-08-17T07:38:25.310Z,9.68
2022-08-17T07:42:28.508Z,9.55
2022-08-17T07:46:53.104Z,10.75
2022-08-17T07:50:55.508Z,10.43
2022-08-17T07:54:57.923Z,11.27
2022-08-17T07:59:23.356Z,14.43
2022-08-17T08:03:31.832Z,10.80
2022-08-17T08:07:38.188Z,14.90
2022-08-17T08:11:44.337Z,11.88
2022-08-17T08:16:16.571Z,9.80
2022-08-17T08:20:52.288Z,11.05
2022-08-17T08:24:42.984Z,13.80
2022-08-17T08:28:55.470Z,12.57
2022-08-17T08:33:06.820Z,14.73
2022-08-17T08:37:35.751Z,13.88
2022-08-17T08:41:58.791Z,12.57
2022-08-17T08:46:41.667Z,16.42
2022-08-17T08:51:05.159Z,13.27
2022-08-17T08:55:24.812Z,13.52
2022-08-17T08:59:29.304Z,11.52
2022-08-17T09:03:53.555Z,12.15
2022-08-17T09:08:04.704Z,16.33
2022-08-17T09:12:16.715Z,12.93
2022-08-17T09:16:40.374Z,15.32
2022-08-17T09:20:58.712Z,11.52
2022-08-17T09:25:21.655Z,13.80
2022-08-17T09:29:26.941Z,14.57
2022-08-17T09:33:31.640Z,17.05
2022-08-17T09:38:01.728Z,17.45
2022-08-17T09:42:24.814Z,17.50
2022-08-17T09:46:36.260Z,17.52
2022-08-17T09:51:12.219Z,16.77
2022-08-17T09:55:14.137Z,12.70
2022-08-17T09:59:38.258Z,16.50
2022-08-17T10:04:06.052Z,14.82
2022-08-17T10:08:32.032Z,16.58
2022-08-17T10:12:47.113Z,17.65
2022-08-17T10:16:56.160Z,17.15
2022-08-17T10:21:22.725Z,15.48
2022-08-17T10:25:54.638Z,13.75
2022-08-17T10:30:04.093Z,16.25
2022-08-17T10:34:27.764Z,15.73
2022-08-17T10:38:37.119Z,16.23
2022-08-17T10:42:54.908Z,18.40
2022-08-17T10:46:56.604Z,17.33
2022-08-17T10:51:09.382Z,24.23
2022-08-17T10:55:18.116Z,17.37
2022-08-17T10:59:35.104Z,17.70
2022-08-17T11:03:36.911Z,20.45
2022-08-17T11:07:58.691Z,19.30
2022-08-17T11:12:19.598Z,20.95
2022-08-17T11:16:47.845Z,22.77
2022-08-17T11:21:09.758Z,20.17
2022-08-17T11:25:20.848Z,24.55
2022-08-17T11:29:33.670Z,21.85
2022-08-17T11:33:44.821Z,22.58
2022-08-17T11:38:15.995Z,20.55
2022-08-17T11:42:18.158Z,26.12
2022-08-17T11:47:08.754Z,23.05
2022-08-17T11:51:34.934Z,24.45
2022-08-17T11:55:44.721Z,25.58
2022-08-17T11:59:46.745Z,24.35
2022-08-17T12:03:55.600Z,22.60
2022-08-17T12:08:19.626Z,26.00
2022-08-17T12:12:32.860Z,27.92
2022-08-17T12:16:34.763Z,26.33
2022-08-17T12:20:46.538Z,25.50
2022-08-17T12:25:00.053Z,25.15
2022-08-17T12:29:18.339Z,26.35
2022-08-17T12:33:49.880Z,29.63
2022-08-17T12:37:51.916Z,30.37
2022-08-17T12:42:02.102Z,25.98
2022-08-17T12:46:19.280Z,31.77
2022-08-17T12:50:28.533Z,33.55
2022-08-17T12:54:53.442Z,30.37
2022-08-17T12:58:56.637Z,33.40
2022-08-17T13:03:15.567Z,32.88
2022-08-17T13:07:34.050Z,34.95
2022-08-17T13:11:35.788Z,34.22
2022-08-17T13:15:43.247Z,33.15
2022-08-17T13:19:49.957Z,33.08
2022-08-17T13:24:17.165Z,35.78
2022-08-17T13:28:30.659Z,34.70
2022-08-17T13:32:48.275Z,31.25
2022-08-17T13:36:52.457Z,32.88
2022-08-17T13:40:54.331Z,36.53
2022-08-17T13:44:56.207Z,31.45
2022-08-17T13:49:04.342Z,31.83
2022-08-17T13:53:37.787Z,31.05
2022-08-17T13:57:46.566Z,38.72
2022-08-17T14:01:53.386Z,38.33
2022-08-17T14:05:55.935Z,43.15
2022-08-17T14:10:01.502Z,43.40
2022-08-17T14:14:04.150Z,38.25
2022-08-17T14:18:05.944Z,40.00
2022-08-17T14:22:14.565Z,44.13
2022-08-17T14:26:16.371Z,41.17
2022-08-17T14:30:20.087Z,39.08
2022-08-17T14:34:29.279Z,37.08
2022-08-17T14:38:31.050Z,36.92
2022-08-17T14:42:34.820Z,36.85
2022-08-17T14:46:36.565Z,38.10
2022-08-17T14:50:42.935Z,36.53
2022-08-17T14:54:45.957Z,32.30
2022-08-17T14:58:47.837Z,31.23
2022-08-17T15:02:59.937Z,25.88
2022-08-17T15:07:01.673Z,27.92
2022-08-17T15:11:04.509Z,28.73
2022-08-17T15:15:07.534Z,33.72
2022-08-17T15:19:09.298Z,30.48
2022-08-17T15:23:15.645Z,33.50
2022-08-17T15:27:17.367Z,31.80
2022-08-17T15:31:33.833Z,36.13
2022-08-17T15:35:35.960Z,37.25
2022-08-17T15:39:37.728Z,33.65
2022-08-17T15:43:39.524Z,32.45
2022-08-17T15:47:42.480Z,28.58
2022-08-17T15:51:44.230Z,33.42
2022-08-17T15:55:46.020Z,37.03
2022-08-17T15:59:50.782Z,34.17
2022-08-17T16:04:06.563Z,40.22
2022-08-17T16:08:10.822Z,36.85
2022-08-17T16:12:18.451Z,37.70
2022-08-17T16:16:20.194Z,36.97
2022-08-17T16:20:22.153Z,34.45
2022-08-17T16:24:23.933Z,33.75
2022-08-17T16:28:35.891Z,34.92
2022-08-17T16:32:38.709Z,32.38
2022-08-17T16:36:41.519Z,33.72
2022-08-17T16:40:56.258Z,33.95
2022-08-17T16:45:04.172Z,31.17
2022-08-17T16:49:07.291Z,33.28
2022-08-17T16:53:19.000Z,28.90
2022-08-17T16:57:21.880Z,24.77
2022-08-17T17:01:25.449Z,22.70
2022-08-17T17:05:45.399Z,20.12
2022-08-17T17:09:55.403Z,19.98
2022-08-17T17:14:02.062Z,19.90
2022-08-17T17:18:07.108Z,17.52
2022-08-17T17:22:30.025Z,16.65
2022-08-17T17:26:48.273Z,16.85
2022-08-17T17:31:02.042Z,19.58
2022-08-17T17:35:09.949Z,22.15
2022-08-17T17:39:43.809Z,24.02
2022-08-17T17:43:49.149Z,22.95
2022-08-17T17:47:53.245Z,23.87
2022-08-17T17:52:26.083Z,24.17
2022-08-17T17:56:44.602Z,25.00
2022-08-17T18:00:59.521Z,26.87
2022-08-17T18:05:12.213Z,26.90
2022-08-17T18:09:17.963Z,27.15
2022-08-17T18:13:31.175Z,26.65
2022-08-17T18:17:35.919Z,23.70
2022-08-17T18:21:44.374Z,25.60
2022-08-17T18:25:49.217Z,25.98
2022-08-17T18:29:55.520Z,23.23
2022-08-17T18:34:46.054Z,23.33
2022-08-17T18:38:46.721Z,24.37
2022-08-17T18:43:00.419Z,22.62
2022-08-17T18:47:13.836Z,22.85
2022-08-17T18:51:39.754Z,23.00
2022-08-17T18:59:48.167Z,21.77
2022-08-17T19:03:50.180Z,21.85
2022-08-17T19:07:52.151Z,23.05
2022-08-17T19:11:54.061Z,24.98
2022-08-17T19:16:17.546Z,24.48
2022-08-17T19:20:26.830Z,24.55
2022-08-17T19:24:34.454Z,25.58
2022-08-17T19:28:48.603Z,25.12
2022-08-17T19:32:52.958Z,24.48
2022-08-17T19:37:04.551Z,23.52
2022-08-17T19:41:29.858Z,24.70
2022-08-17T19:46:06.069Z,26.75
2022-08-17T19:50:18.894Z,26.17
2022-08-17T19:55:00.509Z,25.10
2022-08-17T19:59:14.237Z,26.98
2022-08-17T20:04:03.208Z,26.58
2022-08-17T20:08:07.525Z,24.37
2022-08-17T20:12:13.743Z,25.52
2022-08-17T20:16:17.408Z,25.67
2022-08-17T20:21:03.355Z,26.10
2022-08-17T20:25:12.476Z,26.85
2022-08-17T20:29:14.396Z,25.52
2022-08-17T20:33:36.955Z,26.05
2022-08-17T20:37:44.304Z,34.55
2022-08-17T20:42:06.388Z,26.17
2022-08-17T20:46:11.196Z,27.15
2022-08-17T20:50:26.656Z,26.25
2022-08-17T20:54:47.041Z,27.62
2022-08-17T20:58:48.897Z,27.17
2022-08-17T21:03:12.043Z,27.45
2022-08-17T21:07:43.526Z,28.30
2022-08-17T21:12:02.922Z,26.70
2022-08-17T21:16:30.869Z,26.87
2022-08-17T21:20:58.233Z,27.13
2022-08-17T21:25:32.439Z,28.30
2022-08-17T21:29:40.250Z,29.00
2022-08-17T21:34:20.718Z,28.60
2022-08-17T21:38:33.171Z,27.98
2022-08-17T21:42:38.264Z,29.20
2022-08-17T21:46:46.494Z,28.92
2022-08-17T21:51:03.719Z,29.00
2022-08-17T21:55:06.123Z,29.73
2022-08-17T21:59:24.396Z,29.75
2022-08-17T22:03:31.084Z,31.58
2022-08-17T22:07:42.051Z,32.15
2022-08-17T22:11:52.486Z,32.83
2022-08-17T22:16:29.250Z,31.40
2022-08-17T22:20:31.680Z,30.20
2022-08-17T22:24:33.916Z,31.08
2022-08-17T22:28:52.251Z,32.28
2022-08-17T22:32:55.318Z,31.85
2022-08-17T22:37:32.393Z,33.38
2022-08-17T22:41:42.649Z,32.35
2022-08-17T22:46:09.341Z,34.45
2022-08-17T22:50:23.245Z,33.05
2022-08-17T22:54:47.038Z,36.85
2022-08-17T22:59:15.766Z,36.20
2022-08-17T23:03:20.457Z,35.28
2022-08-17T23:07:22.329Z,32.67
2022-08-17T23:11:36.545Z,33.45
2022-08-17T23:15:50.970Z,37.92
2022-08-17T23:19:53.060Z,37.25
2022-08-17T23:23:55.081Z,36.90
2022-08-17T23:27:58.941Z,36.10
2022-08-17T23:32:01.614Z,33.08
2022-08-17T23:36:03.448Z,35.95
2022-08-17T23:40:05.989Z,34.63
2022-08-17T23:44:08.108Z,34.05
2022-08-17T23:48:09.801Z,35.70
2022-08-17T23:52:15.180Z,34.47
2022-08-17T23:56:24.569Z,33.60
